sensor_id;sensor_type;location;lat;lon;timestamp;P1;durP1;ratioP1;P2;durP2;ratioP2
10114;SDS011;5097;43.260;27.812;2023-03-01T00:00:19;9.03;;;7.37;;
10114;SDS011;5097;43.260;27.812;2023-03-01T00:03:04;10.17;;;7.27;;
10114;SDS011;5097;43.260;27.812;2023-03-01T00:05:48;17.43;;;12.67;;
10114;SDS011;5097;43.260;27.812;2023-03-01T00:08:32;17.23;;;11.50;;
10114;SDS011;5097;43.260;27.812;2023-03-01T00:11:18;21.13;;;12.77;;
10114;SDS011;5097;43.260;27.812;2023-03-01T00:14:03;9.80;;;8.27;;
10114;SDS011;5097;43.260;27.812;2023-03-01T00:16:50;8.97;;;6.80;;
10114;SDS011;5097;43.260;27.812;2023-03-01T00:19:34;7.33;;;6.50;;
10114;SDS011;5097;43.260;27.812;2023-03-01T00:22:18;8.43;;;7.47;;
10114;SDS011;5097;43.260;27.812;2023-03-01T00:25:02;13.07;;;8.37;;
10114;SDS011;5097;43.260;27.812;2023-03-01T00:27:47;11.23;;;8.40;;
10114;SDS011;5097;43.260;27.812;2023-03-01T00:30:32;11.57;;;7.57;;
10114;SDS011;5097;43.260;27.812;2023-03-01T00:33:18;8.47;;;6.77;;
10114;SDS011;5097;43.260;27.812;2023-03-01T00:36:03;9.90;;;6.90;;
10114;SDS011;5097;43.260;27.812;2023-03-01T00:38:47;8.03;;;6.07;;
10114;SDS011;5097;43.260;27.812;2023-03-01T00:41:31;6.97;;;5.60;;
10114;SDS011;5097;43.260;27.812;2023-03-01T00:44:18;6.80;;;5.47;;
10114;SDS011;5097;43.260;27.812;2023-03-01T00:47:02;8.57;;;6.80;;
10114;SDS011;5097;43.260;27.812;2023-03-01T00:49:48;10.20;;;8.00;;
10114;SDS011;5097;43.260;27.812;2023-03-01T00:52:32;12.40;;;7.60;;
10114;SDS011;5097;43.260;27.812;2023-03-01T00:55:16;7.80;;;5.30;;
10114;SDS011;5097;43.260;27.812;2023-03-01T00:58:00;9.43;;;6.13;;
10114;SDS011;5097;43.260;27.812;2023-03-01T01:00:44;5.83;;;5.10;;
10114;SDS011;5097;43.260;27.812;2023-03-01T01:03:28;6.97;;;6.23;;
10114;SDS011;5097;43.260;27.812;2023-03-01T01:06:17;7.00;;;5.47;;
10114;SDS011;5097;43.260;27.812;2023-03-01T01:09:03;9.17;;;5.80;;
10114;SDS011;5097;43.260;27.812;2023-03-01T01:11:49;11.13;;;8.10;;
10114;SDS011;5097;43.260;27.812;2023-03-01T01:14:34;11.20;;;7.43;;
10114;SDS011;5097;43.260;27.812;2023-03-01T01:17:19;15.27;;;9.70;;
10114;SDS011;5097;43.260;27.812;2023-03-01T01:20:03;11.40;;;7.90;;
10114;SDS011;5097;43.260;27.812;2023-03-01T01:22:49;8.87;;;7.40;;
10114;SDS011;5097;43.260;27.812;2023-03-01T01:25:34;16.27;;;9.10;;
10114;SDS011;5097;43.260;27.812;2023-03-01T01:28:19;9.27;;;7.87;;
10114;SDS011;5097;43.260;27.812;2023-03-01T01:31:03;10.97;;;8.40;;
10114;SDS011;5097;43.260;27.812;2023-03-01T01:33:47;12.47;;;8.37;;
10114;SDS011;5097;43.260;27.812;2023-03-01T01:36:31;13.60;;;9.10;;
10114;SDS011;5097;43.260;27.812;2023-03-01T01:39:16;10.57;;;8.73;;
10114;SDS011;5097;43.260;27.812;2023-03-01T01:42:00;9.97;;;8.43;;
10114;SDS011;5097;43.260;27.812;2023-03-01T01:44:45;9.33;;;7.63;;
10114;SDS011;5097;43.260;27.812;2023-03-01T01:47:29;14.63;;;10.83;;
10114;SDS011;5097;43.260;27.812;2023-03-01T01:50:14;11.63;;;9.70;;
10114;SDS011;5097;43.260;27.812;2023-03-01T01:53:01;22.00;;;14.53;;
10114;SDS011;5097;43.260;27.812;2023-03-01T01:55:47;13.77;;;9.87;;
10114;SDS011;5097;43.260;27.812;2023-03-01T01:58:35;13.63;;;10.43;;
10114;SDS011;5097;43.260;27.812;2023-03-01T02:01:20;21.97;;;15.53;;
10114;SDS011;5097;43.260;27.812;2023-03-01T02:04:04;11.33;;;9.40;;
10114;SDS011;5097;43.260;27.812;2023-03-01T02:06:49;11.00;;;8.50;;
10114;SDS011;5097;43.260;27.812;2023-03-01T02:09:40;32.10;;;19.97;;
10114;SDS011;5097;43.260;27.812;2023-03-01T02:12:26;17.87;;;13.50;;
10114;SDS011;5097;43.260;27.812;2023-03-01T02:15:11;14.60;;;10.83;;
10114;SDS011;5097;43.260;27.812;2023-03-01T02:17:55;15.93;;;13.43;;
10114;SDS011;5097;43.260;27.812;2023-03-01T02:20:41;16.00;;;12.63;;
10114;SDS011;5097;43.260;27.812;2023-03-01T02:23:34;10.87;;;9.13;;
10114;SDS011;5097;43.260;27.812;2023-03-01T02:26:21;20.83;;;13.00;;
10114;SDS011;5097;43.260;27.812;2023-03-01T02:29:13;11.30;;;8.80;;
10114;SDS011;5097;43.260;27.812;2023-03-01T02:31:58;10.77;;;8.90;;
10114;SDS011;5097;43.260;27.812;2023-03-01T02:34:44;14.00;;;10.47;;
10114;SDS011;5097;43.260;27.812;2023-03-01T02:37:28;13.20;;;9.30;;
10114;SDS011;5097;43.260;27.812;2023-03-01T02:40:13;13.97;;;11.43;;
10114;SDS011;5097;43.260;27.812;2023-03-01T02:43:00;19.33;;;15.27;;
10114;SDS011;5097;43.260;27.812;2023-03-01T02:45:49;20.20;;;15.63;;
10114;SDS011;5097;43.260;27.812;2023-03-01T02:48:40;14.50;;;10.03;;
10114;SDS011;5097;43.260;27.812;2023-03-01T02:51:41;16.17;;;12.33;;
10114;SDS011;5097;43.260;27.812;2023-03-01T02:54:31;18.17;;;12.90;;
10114;SDS011;5097;43.260;27.812;2023-03-01T02:57:20;17.23;;;12.23;;
10114;SDS011;5097;43.260;27.812;2023-03-01T03:00:06;16.97;;;13.83;;
10114;SDS011;5097;43.260;27.812;2023-03-01T03:02:54;19.23;;;15.23;;
10114;SDS011;5097;43.260;27.812;2023-03-01T03:05:40;17.57;;;14.63;;
10114;SDS011;5097;43.260;27.812;2023-03-01T03:08:24;21.37;;;15.27;;
10114;SDS011;5097;43.260;27.812;2023-03-01T03:11:09;21.13;;;15.60;;
10114;SDS011;5097;43.260;27.812;2023-03-01T03:13:53;23.50;;;15.50;;
10114;SDS011;5097;43.260;27.812;2023-03-01T03:16:39;21.30;;;15.13;;
10114;SDS011;5097;43.260;27.812;2023-03-01T03:19:26;24.17;;;17.57;;
10114;SDS011;5097;43.260;27.812;2023-03-01T03:22:09;21.83;;;16.53;;
10114;SDS011;5097;43.260;27.812;2023-03-01T03:24:53;21.63;;;15.80;;
10114;SDS011;5097;43.260;27.812;2023-03-01T03:27:37;22.90;;;16.80;;
10114;SDS011;5097;43.260;27.812;2023-03-01T03:30:21;23.20;;;15.70;;
10114;SDS011;5097;43.260;27.812;2023-03-01T03:33:06;22.67;;;16.47;;
10114;SDS011;5097;43.260;27.812;2023-03-01T03:35:55;22.97;;;16.97;;
10114;SDS011;5097;43.260;27.812;2023-03-01T03:38:39;21.83;;;15.83;;
10114;SDS011;5097;43.260;27.812;2023-03-01T03:41:23;19.73;;;14.70;;
10114;SDS011;5097;43.260;27.812;2023-03-01T03:44:07;22.80;;;15.40;;
10114;SDS011;5097;43.260;27.812;2023-03-01T03:46:51;22.37;;;14.23;;
10114;SDS011;5097;43.260;27.812;2023-03-01T03:49:35;26.47;;;17.73;;
10114;SDS011;5097;43.260;27.812;2023-03-01T03:52:20;24.70;;;17.27;;
10114;SDS011;5097;43.260;27.812;2023-03-01T03:55:04;18.63;;;13.13;;
10114;SDS011;5097;43.260;27.812;2023-03-01T03:57:53;22.60;;;15.53;;
10114;SDS011;5097;43.260;27.812;2023-03-01T04:00:40;23.43;;;15.93;;
10114;SDS011;5097;43.260;27.812;2023-03-01T04:03:25;19.20;;;14.77;;
10114;SDS011;5097;43.260;27.812;2023-03-01T04:06:10;17.03;;;11.90;;
10114;SDS011;5097;43.260;27.812;2023-03-01T04:08:55;23.73;;;15.10;;
10114;SDS011;5097;43.260;27.812;2023-03-01T04:11:41;22.27;;;15.23;;
10114;SDS011;5097;43.260;27.812;2023-03-01T04:14:24;17.80;;;13.70;;
10114;SDS011;5097;43.260;27.812;2023-03-01T04:17:08;25.03;;;15.13;;
10114;SDS011;5097;43.260;27.812;2023-03-01T04:19:52;29.00;;;19.40;;
10114;SDS011;5097;43.260;27.812;2023-03-01T04:22:36;21.80;;;15.97;;
10114;SDS011;5097;43.260;27.812;2023-03-01T04:25:21;19.77;;;12.53;;
10114;SDS011;5097;43.260;27.812;2023-03-01T04:28:07;27.27;;;18.13;;
10114;SDS011;5097;43.260;27.812;2023-03-01T04:30:52;26.60;;;16.70;;
10114;SDS011;5097;43.260;27.812;2023-03-01T04:33:37;23.20;;;17.33;;
10114;SDS011;5097;43.260;27.812;2023-03-01T04:36:23;24.30;;;17.10;;
10114;SDS011;5097;43.260;27.812;2023-03-01T04:39:08;24.17;;;18.07;;
10114;SDS011;5097;43.260;27.812;2023-03-01T04:41:56;23.10;;;17.20;;
10114;SDS011;5097;43.260;27.812;2023-03-01T04:44:39;24.57;;;17.60;;
10114;SDS011;5097;43.260;27.812;2023-03-01T04:47:23;25.27;;;17.67;;
10114;SDS011;5097;43.260;27.812;2023-03-01T04:50:08;26.33;;;18.77;;
10114;SDS011;5097;43.260;27.812;2023-03-01T04:52:52;23.67;;;18.27;;
10114;SDS011;5097;43.260;27.812;2023-03-01T04:55:36;24.07;;;17.03;;
10114;SDS011;5097;43.260;27.812;2023-03-01T04:58:22;25.03;;;18.00;;
10114;SDS011;5097;43.260;27.812;2023-03-01T05:01:10;24.37;;;17.70;;
10114;SDS011;5097;43.260;27.812;2023-03-01T05:03:58;22.87;;;17.07;;
10114;SDS011;5097;43.260;27.812;2023-03-01T05:06:47;24.00;;;17.87;;
10114;SDS011;5097;43.260;27.812;2023-03-01T05:09:32;22.83;;;17.33;;
10114;SDS011;5097;43.260;27.812;2023-03-01T05:12:16;20.70;;;15.83;;
10114;SDS011;5097;43.260;27.812;2023-03-01T05:15:01;24.23;;;17.47;;
10114;SDS011;5097;43.260;27.812;2023-03-01T05:17:49;21.10;;;16.37;;
10114;SDS011;5097;43.260;27.812;2023-03-01T05:20:33;22.33;;;16.97;;
10114;SDS011;5097;43.260;27.812;2023-03-01T05:23:18;25.57;;;19.30;;
10114;SDS011;5097;43.260;27.812;2023-03-01T05:26:03;24.50;;;18.77;;
10114;SDS011;5097;43.260;27.812;2023-03-01T05:28:52;26.20;;;18.83;;
10114;SDS011;5097;43.260;27.812;2023-03-01T05:31:40;27.13;;;19.13;;
10114;SDS011;5097;43.260;27.812;2023-03-01T05:34:24;24.17;;;18.20;;
10114;SDS011;5097;43.260;27.812;2023-03-01T05:37:09;23.20;;;17.70;;
10114;SDS011;5097;43.260;27.812;2023-03-01T05:39:53;22.40;;;17.70;;
10114;SDS011;5097;43.260;27.812;2023-03-01T05:42:38;27.90;;;19.17;;
10114;SDS011;5097;43.260;27.812;2023-03-01T05:45:23;25.30;;;18.73;;
10114;SDS011;5097;43.260;27.812;2023-03-01T05:48:09;24.03;;;18.17;;
10114;SDS011;5097;43.260;27.812;2023-03-01T05:50:54;26.77;;;20.47;;
10114;SDS011;5097;43.260;27.812;2023-03-01T05:53:43;24.57;;;19.20;;
10114;SDS011;5097;43.260;27.812;2023-03-01T05:56:27;26.30;;;19.23;;
10114;SDS011;5097;43.260;27.812;2023-03-01T05:59:12;27.73;;;19.90;;
10114;SDS011;5097;43.260;27.812;2023-03-01T06:01:55;25.03;;;17.57;;
10114;SDS011;5097;43.260;27.812;2023-03-01T06:04:41;25.43;;;19.03;;
10114;SDS011;5097;43.260;27.812;2023-03-01T06:07:25;23.93;;;18.27;;
10114;SDS011;5097;43.260;27.812;2023-03-01T06:10:10;26.77;;;18.57;;
10114;SDS011;5097;43.260;27.812;2023-03-01T06:12:55;23.97;;;18.07;;
10114;SDS011;5097;43.260;27.812;2023-03-01T06:15:39;21.70;;;17.80;;
10114;SDS011;5097;43.260;27.812;2023-03-01T06:18:23;24.17;;;16.37;;
10114;SDS011;5097;43.260;27.812;2023-03-01T06:21:09;23.20;;;18.33;;
10114;SDS011;5097;43.260;27.812;2023-03-01T06:23:53;21.10;;;17.57;;
10114;SDS011;5097;43.260;27.812;2023-03-01T06:26:37;26.37;;;19.77;;
10114;SDS011;5097;43.260;27.812;2023-03-01T06:29:21;24.07;;;18.17;;
10114;SDS011;5097;43.260;27.812;2023-03-01T06:32:05;24.67;;;16.60;;
10114;SDS011;5097;43.260;27.812;2023-03-01T06:34:50;22.97;;;16.17;;
10114;SDS011;5097;43.260;27.812;2023-03-01T06:37:36;18.73;;;15.27;;
10114;SDS011;5097;43.260;27.812;2023-03-01T06:40:20;21.60;;;16.97;;
10114;SDS011;5097;43.260;27.812;2023-03-01T06:43:04;20.80;;;16.83;;
10114;SDS011;5097;43.260;27.812;2023-03-01T06:45:49;19.17;;;15.37;;
10114;SDS011;5097;43.260;27.812;2023-03-01T06:48:34;23.07;;;16.50;;
10114;SDS011;5097;43.260;27.812;2023-03-01T06:51:18;19.70;;;15.43;;
10114;SDS011;5097;43.260;27.812;2023-03-01T06:54:03;18.93;;;16.13;;
10114;SDS011;5097;43.260;27.812;2023-03-01T06:56:48;19.70;;;15.37;;
10114;SDS011;5097;43.260;27.812;2023-03-01T06:59:33;22.17;;;15.93;;
10114;SDS011;5097;43.260;27.812;2023-03-01T07:02:17;21.13;;;16.43;;
10114;SDS011;5097;43.260;27.812;2023-03-01T07:05:01;19.73;;;15.93;;
10114;SDS011;5097;43.260;27.812;2023-03-01T07:07:46;22.57;;;18.07;;
10114;SDS011;5097;43.260;27.812;2023-03-01T07:10:31;25.23;;;19.10;;
10114;SDS011;5097;43.260;27.812;2023-03-01T07:13:15;23.20;;;16.90;;
10114;SDS011;5097;43.260;27.812;2023-03-01T07:15:59;23.10;;;17.40;;
10114;SDS011;5097;43.260;27.812;2023-03-01T07:18:44;21.13;;;16.57;;
10114;SDS011;5097;43.260;27.812;2023-03-01T07:21:28;22.40;;;18.67;;
10114;SDS011;5097;43.260;27.812;2023-03-01T07:24:12;22.20;;;17.47;;
10114;SDS011;5097;43.260;27.812;2023-03-01T07:26:57;25.70;;;17.10;;
10114;SDS011;5097;43.260;27.812;2023-03-01T07:29:41;23.50;;;18.53;;
10114;SDS011;5097;43.260;27.812;2023-03-01T07:32:25;22.70;;;18.13;;
10114;SDS011;5097;43.260;27.812;2023-03-01T07:35:10;24.93;;;18.47;;
10114;SDS011;5097;43.260;27.812;2023-03-01T07:37:54;23.27;;;16.03;;
10114;SDS011;5097;43.260;27.812;2023-03-01T07:40:38;19.80;;;14.40;;
10114;SDS011;5097;43.260;27.812;2023-03-01T07:43:23;21.83;;;17.80;;
10114;SDS011;5097;43.260;27.812;2023-03-01T07:46:07;30.70;;;19.00;;
10114;SDS011;5097;43.260;27.812;2023-03-01T07:48:52;27.50;;;20.03;;
10114;SDS011;5097;43.260;27.812;2023-03-01T07:51:36;30.57;;;23.20;;
10114;SDS011;5097;43.260;27.812;2023-03-01T07:54:20;37.47;;;25.47;;
10114;SDS011;5097;43.260;27.812;2023-03-01T07:57:05;31.70;;;20.73;;
10114;SDS011;5097;43.260;27.812;2023-03-01T07:59:50;31.73;;;20.47;;
10114;SDS011;5097;43.260;27.812;2023-03-01T08:02:34;61.83;;;43.73;;
10114;SDS011;5097;43.260;27.812;2023-03-01T08:05:19;26.57;;;16.73;;
10114;SDS011;5097;43.260;27.812;2023-03-01T08:08:04;35.30;;;24.07;;
10114;SDS011;5097;43.260;27.812;2023-03-01T08:10:48;28.37;;;20.93;;
10114;SDS011;5097;43.260;27.812;2023-03-01T08:13:32;45.77;;;29.10;;
10114;SDS011;5097;43.260;27.812;2023-03-01T08:16:18;25.77;;;16.30;;
10114;SDS011;5097;43.260;27.812;2023-03-01T08:19:03;24.20;;;15.47;;
10114;SDS011;5097;43.260;27.812;2023-03-01T08:21:48;23.57;;;16.60;;
10114;SDS011;5097;43.260;27.812;2023-03-01T08:24:32;24.53;;;18.77;;
10114;SDS011;5097;43.260;27.812;2023-03-01T08:27:17;19.50;;;16.00;;
10114;SDS011;5097;43.260;27.812;2023-03-01T08:30:01;19.20;;;13.27;;
10114;SDS011;5097;43.260;27.812;2023-03-01T08:32:46;17.83;;;14.33;;
10114;SDS011;5097;43.260;27.812;2023-03-01T08:35:31;18.50;;;15.03;;
10114;SDS011;5097;43.260;27.812;2023-03-01T08:38:15;21.03;;;16.00;;
10114;SDS011;5097;43.260;27.812;2023-03-01T08:40:59;19.80;;;16.17;;
10114;SDS011;5097;43.260;27.812;2023-03-01T08:43:44;22.37;;;17.57;;
10114;SDS011;5097;43.260;27.812;2023-03-01T08:46:28;17.37;;;11.53;;
10114;SDS011;5097;43.260;27.812;2023-03-01T08:49:16;17.10;;;13.53;;
10114;SDS011;5097;43.260;27.812;2023-03-01T08:52:02;18.47;;;13.53;;
10114;SDS011;5097;43.260;27.812;2023-03-01T08:54:47;19.93;;;16.10;;
10114;SDS011;5097;43.260;27.812;2023-03-01T08:57:31;22.00;;;18.30;;
10114;SDS011;5097;43.260;27.812;2023-03-01T09:00:15;19.60;;;14.93;;
10114;SDS011;5097;43.260;27.812;2023-03-01T09:03:00;21.20;;;16.10;;
10114;SDS011;5097;43.260;27.812;2023-03-01T09:05:46;23.13;;;16.07;;
10114;SDS011;5097;43.260;27.812;2023-03-01T09:08:33;23.30;;;19.90;;
10114;SDS011;5097;43.260;27.812;2023-03-01T09:11:18;20.43;;;15.40;;
10114;SDS011;5097;43.260;27.812;2023-03-01T09:14:04;26.40;;;20.63;;
10114;SDS011;5097;43.260;27.812;2023-03-01T09:16:49;21.03;;;17.43;;
10114;SDS011;5097;43.260;27.812;2023-03-01T09:19:34;21.07;;;17.80;;
10114;SDS011;5097;43.260;27.812;2023-03-01T09:22:19;19.83;;;16.47;;
10114;SDS011;5097;43.260;27.812;2023-03-01T09:25:04;17.97;;;15.40;;
10114;SDS011;5097;43.260;27.812;2023-03-01T09:27:50;26.30;;;19.33;;
10114;SDS011;5097;43.260;27.812;2023-03-01T09:30:34;28.00;;;21.70;;
10114;SDS011;5097;43.260;27.812;2023-03-01T09:33:18;25.70;;;18.83;;
10114;SDS011;5097;43.260;27.812;2023-03-01T09:36:03;28.70;;;20.63;;
10114;SDS011;5097;43.260;27.812;2023-03-01T09:38:50;29.33;;;22.73;;
10114;SDS011;5097;43.260;27.812;2023-03-01T09:41:43;24.13;;;17.40;;
10114;SDS011;5097;43.260;27.812;2023-03-01T09:44:30;30.80;;;22.80;;
10114;SDS011;5097;43.260;27.812;2023-03-01T09:47:19;25.80;;;19.60;;
10114;SDS011;5097;43.260;27.812;2023-03-01T09:50:06;32.57;;;23.37;;
10114;SDS011;5097;43.260;27.812;2023-03-01T09:52:59;29.27;;;20.37;;
10114;SDS011;5097;43.260;27.812;2023-03-01T09:55:48;26.43;;;21.63;;
10114;SDS011;5097;43.260;27.812;2023-03-01T09:58:37;27.83;;;18.60;;
10114;SDS011;5097;43.260;27.812;2023-03-01T10:01:29;26.27;;;16.00;;
10114;SDS011;5097;43.260;27.812;2023-03-01T10:04:24;27.67;;;19.63;;
10114;SDS011;5097;43.260;27.812;2023-03-01T10:07:18;25.93;;;18.37;;
10114;SDS011;5097;43.260;27.812;2023-03-01T10:10:21;29.60;;;21.53;;
10114;SDS011;5097;43.260;27.812;2023-03-01T10:13:13;34.07;;;23.60;;
10114;SDS011;5097;43.260;27.812;2023-03-01T10:16:01;35.83;;;24.53;;
10114;SDS011;5097;43.260;27.812;2023-03-01T10:18:53;26.70;;;21.50;;
10114;SDS011;5097;43.260;27.812;2023-03-01T10:21:43;60.47;;;39.80;;
10114;SDS011;5097;43.260;27.812;2023-03-01T10:24:28;29.90;;;19.93;;
10114;SDS011;5097;43.260;27.812;2023-03-01T10:27:17;28.93;;;22.43;;
10114;SDS011;5097;43.260;27.812;2023-03-01T10:30:09;32.73;;;22.27;;
10114;SDS011;5097;43.260;27.812;2023-03-01T10:32:59;23.30;;;18.83;;
10114;SDS011;5097;43.260;27.812;2023-03-01T10:35:45;26.63;;;19.83;;
10114;SDS011;5097;43.260;27.812;2023-03-01T10:38:30;23.40;;;19.23;;
10114;SDS011;5097;43.260;27.812;2023-03-01T10:41:29;31.23;;;23.07;;
10114;SDS011;5097;43.260;27.812;2023-03-01T10:44:34;24.73;;;19.30;;
10114;SDS011;5097;43.260;27.812;2023-03-01T10:47:22;27.43;;;20.50;;
10114;SDS011;5097;43.260;27.812;2023-03-01T10:50:09;27.80;;;20.10;;
10114;SDS011;5097;43.260;27.812;2023-03-01T10:53:04;26.77;;;18.73;;
10114;SDS011;5097;43.260;27.812;2023-03-01T10:55:48;29.13;;;20.97;;
10114;SDS011;5097;43.260;27.812;2023-03-01T10:58:56;27.90;;;20.60;;
10114;SDS011;5097;43.260;27.812;2023-03-01T11:01:41;21.50;;;16.37;;
10114;SDS011;5097;43.260;27.812;2023-03-01T11:04:27;26.10;;;18.57;;
10114;SDS011;5097;43.260;27.812;2023-03-01T11:07:11;28.83;;;19.27;;
10114;SDS011;5097;43.260;27.812;2023-03-01T11:09:55;23.27;;;19.00;;
10114;SDS011;5097;43.260;27.812;2023-03-01T11:12:39;22.17;;;17.80;;
10114;SDS011;5097;43.260;27.812;2023-03-01T11:15:25;29.50;;;19.03;;
10114;SDS011;5097;43.260;27.812;2023-03-01T11:18:18;22.03;;;15.87;;
10114;SDS011;5097;43.260;27.812;2023-03-01T11:21:16;23.17;;;16.93;;
10114;SDS011;5097;43.260;27.812;2023-03-01T11:24:01;16.63;;;12.63;;
10114;SDS011;5097;43.260;27.812;2023-03-01T11:26:47;23.33;;;16.27;;
10114;SDS011;5097;43.260;27.812;2023-03-01T11:29:37;23.80;;;15.43;;
10114;SDS011;5097;43.260;27.812;2023-03-01T11:32:32;24.73;;;17.07;;
10114;SDS011;5097;43.260;27.812;2023-03-01T11:35:22;16.47;;;11.37;;
10114;SDS011;5097;43.260;27.812;2023-03-01T11:38:15;17.30;;;12.67;;
10114;SDS011;5097;43.260;27.812;2023-03-01T11:41:05;19.67;;;13.33;;
10114;SDS011;5097;43.260;27.812;2023-03-01T11:43:52;9.73;;;8.33;;
10114;SDS011;5097;43.260;27.812;2023-03-01T11:46:51;12.33;;;10.03;;
10114;SDS011;5097;43.260;27.812;2023-03-01T11:50:05;14.50;;;10.43;;
10114;SDS011;5097;43.260;27.812;2023-03-01T11:53:09;18.67;;;12.60;;
10114;SDS011;5097;43.260;27.812;2023-03-01T11:56:11;17.30;;;12.03;;
10114;SDS011;5097;43.260;27.812;2023-03-01T11:59:13;16.00;;;12.50;;
10114;SDS011;5097;43.260;27.812;2023-03-01T12:05:59;18.80;;;13.00;;
10114;SDS011;5097;43.260;27.812;2023-03-01T12:09:13;15.07;;;13.10;;
10114;SDS011;5097;43.260;27.812;2023-03-01T12:15:36;11.67;;;10.00;;
10114;SDS011;5097;43.260;27.812;2023-03-01T12:18:41;11.63;;;8.87;;
10114;SDS011;5097;43.260;27.812;2023-03-01T12:21:51;18.00;;;13.40;;
10114;SDS011;5097;43.260;27.812;2023-03-01T12:25:02;18.63;;;13.30;;
10114;SDS011;5097;43.260;27.812;2023-03-01T12:34:37;21.07;;;14.47;;
10114;SDS011;5097;43.260;27.812;2023-03-01T12:37:41;13.43;;;11.27;;
10114;SDS011;5097;43.260;27.812;2023-03-01T12:40:43;18.33;;;13.60;;
10114;SDS011;5097;43.260;27.812;2023-03-01T12:43:46;13.33;;;12.03;;
10114;SDS011;5097;43.260;27.812;2023-03-01T12:46:47;15.43;;;13.50;;
10114;SDS011;5097;43.260;27.812;2023-03-01T12:49:39;14.47;;;10.53;;
10114;SDS011;5097;43.260;27.812;2023-03-01T12:52:27;12.17;;;10.97;;
10114;SDS011;5097;43.260;27.812;2023-03-01T12:55:24;13.43;;;11.93;;
10114;SDS011;5097;43.260;27.812;2023-03-01T12:58:16;11.03;;;10.00;;
10114;SDS011;5097;43.260;27.812;2023-03-01T13:01:17;13.90;;;10.73;;
10114;SDS011;5097;43.260;27.812;2023-03-01T13:07:19;12.83;;;11.43;;
10114;SDS011;5097;43.260;27.812;2023-03-01T13:10:16;10.70;;;9.60;;
10114;SDS011;5097;43.260;27.812;2023-03-01T13:13:18;10.73;;;8.53;;
10114;SDS011;5097;43.260;27.812;2023-03-01T13:19:25;9.60;;;7.53;;
10114;SDS011;5097;43.260;27.812;2023-03-01T13:22:25;10.63;;;9.00;;
10114;SDS011;5097;43.260;27.812;2023-03-01T13:25:14;13.53;;;10.07;;
10114;SDS011;5097;43.260;27.812;2023-03-01T13:34:46;13.83;;;12.00;;
10114;SDS011;5097;43.260;27.812;2023-03-01T13:37:37;14.73;;;10.60;;
10114;SDS011;5097;43.260;27.812;2023-03-01T13:43:43;14.10;;;10.37;;
10114;SDS011;5097;43.260;27.812;2023-03-01T13:46:29;13.57;;;11.30;;
10114;SDS011;5097;43.260;27.812;2023-03-01T13:49:18;14.10;;;11.17;;
10114;SDS011;5097;43.260;27.812;2023-03-01T13:52:04;13.50;;;11.30;;
10114;SDS011;5097;43.260;27.812;2023-03-01T13:54:49;14.40;;;12.27;;
10114;SDS011;5097;43.260;27.812;2023-03-01T13:57:34;13.90;;;10.40;;
10114;SDS011;5097;43.260;27.812;2023-03-01T14:00:30;21.03;;;15.40;;
10114;SDS011;5097;43.260;27.812;2023-03-01T14:03:19;17.70;;;13.23;;
10114;SDS011;5097;43.260;27.812;2023-03-01T14:06:04;15.23;;;11.63;;
10114;SDS011;5097;43.260;27.812;2023-03-01T14:09:03;15.07;;;11.10;;
10114;SDS011;5097;43.260;27.812;2023-03-01T14:12:03;13.23;;;11.83;;
10114;SDS011;5097;43.260;27.812;2023-03-01T14:14:59;15.10;;;13.23;;
10114;SDS011;5097;43.260;27.812;2023-03-01T14:17:54;19.53;;;16.03;;
10114;SDS011;5097;43.260;27.812;2023-03-01T14:20:43;20.63;;;16.53;;
10114;SDS011;5097;43.260;27.812;2023-03-01T14:23:33;17.77;;;13.73;;
10114;SDS011;5097;43.260;27.812;2023-03-01T14:26:20;18.53;;;14.37;;
10114;SDS011;5097;43.260;27.812;2023-03-01T14:29:04;22.30;;;16.03;;
10114;SDS011;5097;43.260;27.812;2023-03-01T14:31:48;16.73;;;13.97;;
10114;SDS011;5097;43.260;27.812;2023-03-01T14:34:36;20.57;;;16.93;;
10114;SDS011;5097;43.260;27.812;2023-03-01T14:37:27;19.00;;;16.03;;
10114;SDS011;5097;43.260;27.812;2023-03-01T14:40:20;20.30;;;16.57;;
10114;SDS011;5097;43.260;27.812;2023-03-01T14:43:09;18.17;;;13.70;;
10114;SDS011;5097;43.260;27.812;2023-03-01T14:45:54;20.97;;;17.07;;
10114;SDS011;5097;43.260;27.812;2023-03-01T14:48:39;16.23;;;12.67;;
10114;SDS011;5097;43.260;27.812;2023-03-01T14:51:24;19.60;;;15.30;;
10114;SDS011;5097;43.260;27.812;2023-03-01T14:54:17;18.87;;;15.23;;
10114;SDS011;5097;43.260;27.812;2023-03-01T14:57:04;15.07;;;13.17;;
10114;SDS011;5097;43.260;27.812;2023-03-01T14:59:48;16.03;;;12.87;;
10114;SDS011;5097;43.260;27.812;2023-03-01T15:02:35;21.17;;;15.53;;
10114;SDS011;5097;43.260;27.812;2023-03-01T15:05:21;18.50;;;14.87;;
10114;SDS011;5097;43.260;27.812;2023-03-01T15:08:15;13.03;;;11.40;;
10114;SDS011;5097;43.260;27.812;2023-03-01T15:11:03;17.57;;;13.50;;
10114;SDS011;5097;43.260;27.812;2023-03-01T15:13:59;15.37;;;13.77;;
10114;SDS011;5097;43.260;27.812;2023-03-01T15:16:43;14.20;;;12.43;;
10114;SDS011;5097;43.260;27.812;2023-03-01T15:19:28;16.17;;;13.53;;
10114;SDS011;5097;43.260;27.812;2023-03-01T15:22:13;16.17;;;14.47;;
10114;SDS011;5097;43.260;27.812;2023-03-01T15:25:00;22.73;;;20.43;;
10114;SDS011;5097;43.260;27.812;2023-03-01T15:27:45;15.77;;;14.13;;
10114;SDS011;5097;43.260;27.812;2023-03-01T15:30:31;17.80;;;14.50;;
10114;SDS011;5097;43.260;27.812;2023-03-01T15:33:25;23.40;;;17.50;;
10114;SDS011;5097;43.260;27.812;2023-03-01T15:36:33;24.23;;;18.10;;
10114;SDS011;5097;43.260;27.812;2023-03-01T15:42:39;15.67;;;13.40;;
10114;SDS011;5097;43.260;27.812;2023-03-01T15:45:23;20.73;;;17.60;;
10114;SDS011;5097;43.260;27.812;2023-03-01T15:48:14;20.77;;;17.97;;
10114;SDS011;5097;43.260;27.812;2023-03-01T15:51:01;21.67;;;18.43;;
10114;SDS011;5097;43.260;27.812;2023-03-01T15:53:46;25.13;;;21.40;;
10114;SDS011;5097;43.260;27.812;2023-03-01T15:56:35;16.47;;;14.77;;
10114;SDS011;5097;43.260;27.812;2023-03-01T15:59:21;32.83;;;23.60;;
10114;SDS011;5097;43.260;27.812;2023-03-01T16:02:08;21.80;;;17.47;;
10114;SDS011;5097;43.260;27.812;2023-03-01T16:04:52;19.97;;;17.03;;
10114;SDS011;5097;43.260;27.812;2023-03-01T16:07:38;17.40;;;15.43;;
10114;SDS011;5097;43.260;27.812;2023-03-01T16:10:22;20.90;;;16.50;;
10114;SDS011;5097;43.260;27.812;2023-03-01T16:13:07;23.37;;;18.90;;
10114;SDS011;5097;43.260;27.812;2023-03-01T16:15:53;23.77;;;19.37;;
10114;SDS011;5097;43.260;27.812;2023-03-01T16:18:37;21.43;;;18.77;;
10114;SDS011;5097;43.260;27.812;2023-03-01T16:21:21;22.03;;;18.17;;
10114;SDS011;5097;43.260;27.812;2023-03-01T16:24:07;18.83;;;15.43;;
10114;SDS011;5097;43.260;27.812;2023-03-01T16:26:51;22.27;;;17.73;;
10114;SDS011;5097;43.260;27.812;2023-03-01T16:29:35;21.13;;;17.00;;
10114;SDS011;5097;43.260;27.812;2023-03-01T16:32:20;24.47;;;20.73;;
10114;SDS011;5097;43.260;27.812;2023-03-01T16:35:04;27.70;;;21.27;;
10114;SDS011;5097;43.260;27.812;2023-03-01T16:37:49;27.23;;;20.53;;
10114;SDS011;5097;43.260;27.812;2023-03-01T16:40:34;20.60;;;16.60;;
10114;SDS011;5097;43.260;27.812;2023-03-01T16:43:18;28.80;;;24.47;;
10114;SDS011;5097;43.260;27.812;2023-03-01T16:46:04;32.37;;;22.93;;
10114;SDS011;5097;43.260;27.812;2023-03-01T16:48:55;22.07;;;19.30;;
10114;SDS011;5097;43.260;27.812;2023-03-01T16:51:39;23.00;;;17.87;;
10114;SDS011;5097;43.260;27.812;2023-03-01T16:54:23;22.97;;;19.97;;